createdAt,value
2023-07-25T00:01:41.597Z,99005.00
2023-07-25T00:06:41.182Z,99015.60
2023-07-25T00:11:40.401Z,99031.80
2023-07-25T00:16:42.544Z,99034.80
2023-07-25T00:21:42.329Z,99018.80
2023-07-25T00:26:42.303Z,99024.80
2023-07-25T00:31:42.355Z,99038.40
2023-07-25T00:36:41.762Z,99026.60
2023-07-25T00:41:42.658Z,99028.00
2023-07-25T00:46:43.262Z,99017.60
2023-07-25T00:51:43.236Z,99009.20
2023-07-25T00:56:43.537Z,99015.00
2023-07-25T01:01:43.689Z,99027.60
2023-07-25T01:06:43.597Z,99037.80
2023-07-25T01:11:42.590Z,99043.40
2023-07-25T01:16:42.567Z,99033.80
2023-07-25T01:21:42.502Z,99033.60
2023-07-25T01:26:41.863Z,99037.20
2023-07-25T01:31:41.011Z,99019.60
2023-07-25T01:36:40.753Z,99020.80
2023-07-25T01:41:42.144Z,99018.40
2023-07-25T01:46:44.987Z,99021.00
2023-07-25T01:51:44.544Z,99023.80
2023-07-25T01:56:44.436Z,99021.60
2023-07-25T02:01:43.873Z,99010.80
2023-07-25T02:06:42.781Z,99006.60
2023-07-25T02:11:42.020Z,99013.60
2023-07-25T02:16:41.891Z,99013.60
2023-07-25T02:21:41.701Z,99019.80
2023-07-25T02:26:41.405Z,99011.40
2023-07-25T02:31:41.223Z,99011.40
2023-07-25T02:36:39.854Z,99007.20
2023-07-25T02:41:39.390Z,99007.80
2023-07-25T02:46:39.028Z,98993.40
2023-07-25T02:51:37.978Z,98992.00
2023-07-25T02:56:40.127Z,99005.40
2023-07-25T03:01:40.019Z,99001.80
2023-07-25T03:06:40.030Z,98999.40
2023-07-25T03:11:39.315Z,99009.80
2023-07-25T03:16:38.546Z,99006.40
2023-07-25T03:21:37.956Z,99019.20
2023-07-25T03:26:37.421Z,99017.00
2023-07-25T03:31:37.103Z,99024.60
2023-07-25T03:36:36.348Z,99029.80
2023-07-25T03:41:36.132Z,99033.00
2023-07-25T03:46:35.555Z,99024.00
2023-07-25T03:51:35.117Z,99030.80
2023-07-25T03:56:34.184Z,99025.20
2023-07-25T04:01:34.829Z,99035.20
2023-07-25T04:06:34.241Z,99049.60
2023-07-25T04:11:33.717Z,99055.60
2023-07-25T04:16:33.186Z,99050.20
2023-07-25T04:21:33.692Z,99063.80
2023-07-25T04:26:33.400Z,99059.60
2023-07-25T04:31:33.393Z,99065.40
2023-07-25T04:36:32.903Z,99068.00
2023-07-25T04:41:32.634Z,99073.40
2023-07-25T04:46:32.574Z,99074.00
2023-07-25T04:51:31.525Z,99078.40
2023-07-25T04:56:31.213Z,99084.20
2023-07-25T05:01:31.413Z,99090.80
2023-07-25T05:19:29.267Z,99098.60
2023-07-25T05:24:29.212Z,99097.00
2023-07-25T05:29:29.639Z,99095.60
2023-07-25T05:34:29.425Z,99101.80
2023-07-25T05:39:32.182Z,99103.20
2023-07-25T05:44:32.045Z,99101.20
2023-07-25T05:49:31.371Z,99087.20
2023-07-25T05:54:32.308Z,99098.40
2023-07-25T05:59:31.184Z,99105.00
2023-07-25T06:04:30.425Z,99104.80
2023-07-25T06:09:30.508Z,99107.00
2023-07-25T06:14:31.745Z,99102.80
2023-07-25T06:19:31.370Z,99112.60
2023-07-25T06:24:30.994Z,99103.00
2023-07-25T06:29:30.496Z,99094.60
2023-07-25T06:34:30.076Z,99092.40
2023-07-25T06:39:29.066Z,99100.00
2023-07-25T06:44:28.337Z,99100.80
2023-07-25T06:49:27.184Z,99106.20
2023-07-25T06:54:26.807Z,99113.20
2023-07-25T06:59:27.085Z,99129.40
2023-07-25T07:04:27.006Z,99116.00
2023-07-25T07:09:26.917Z,99109.60
2023-07-25T07:14:26.217Z,99119.00
2023-07-25T07:19:25.465Z,99137.20
2023-07-25T07:24:25.011Z,99133.00
2023-07-25T07:29:24.087Z,99135.40
2023-07-25T07:34:24.096Z,99132.20
2023-07-25T07:39:23.877Z,99137.40
2023-07-25T07:44:25.398Z,99140.00
2023-07-25T07:49:25.610Z,99141.40
2023-07-25T07:54:26.118Z,99144.80
2023-07-25T07:59:25.089Z,99139.20
2023-07-25T08:04:24.613Z,99135.60
2023-07-25T08:09:23.771Z,99152.60
2023-07-25T08:14:23.186Z,99148.80
2023-07-25T08:19:22.589Z,99144.20
2023-07-25T08:24:21.986Z,99132.00
2023-07-25T08:29:21.337Z,99138.00
2023-07-25T08:34:21.032Z,99153.60
2023-07-25T08:39:20.288Z,99164.00
2023-07-25T08:44:22.266Z,99147.80
2023-07-25T08:49:26.773Z,99126.60
2023-07-25T08:54:33.696Z,99124.80
2023-07-25T08:59:34.420Z,99116.20
2023-07-25T09:04:34.341Z,99098.40
2023-07-25T09:09:33.778Z,99128.00
2023-07-25T09:14:34.167Z,99130.00
2023-07-25T09:19:36.214Z,99128.60
2023-07-25T09:24:43.818Z,99140.40
2023-07-25T09:29:44.020Z,99162.20
2023-07-25T09:34:48.220Z,99174.20
2023-07-25T09:39:50.119Z,99173.80
2023-07-25T09:44:53.057Z,99162.80
2023-07-25T09:49:56.327Z,99152.40
2023-07-25T09:54:55.942Z,99152.80
2023-07-25T09:59:56.564Z,99155.80
2023-07-25T10:04:58.297Z,99143.40
2023-07-25T10:09:59.545Z,99156.80
2023-07-25T10:15:01.345Z,99153.00
2023-07-25T10:20:01.691Z,99163.00
2023-07-25T10:25:01.561Z,99162.80
2023-07-25T10:30:23.589Z,99159.40
2023-07-25T10:41:01.311Z,99149.20
2023-07-25T10:46:05.427Z,99147.00
2023-07-25T10:51:08.534Z,99157.20
2023-07-25T10:56:23.256Z,99151.40
2023-07-25T11:01:38.171Z,99165.60
2023-07-25T11:06:45.142Z,99166.00
2023-07-25T11:11:50.768Z,99158.40
2023-07-25T11:16:52.890Z,99149.60
2023-07-25T11:21:52.371Z,99153.20
2023-07-25T11:26:52.098Z,99147.60
2023-07-25T11:31:55.357Z,99144.40
2023-07-25T11:36:55.636Z,99159.40
2023-07-25T11:41:55.562Z,99158.00
2023-07-25T11:46:57.967Z,99163.20
2023-07-25T11:51:58.554Z,99163.00
2023-07-25T11:56:58.920Z,99152.00
2023-07-25T12:02:09.977Z,99146.00
2023-07-25T12:07:12.826Z,99147.60
2023-07-25T12:12:18.550Z,99154.00
2023-07-25T12:17:19.964Z,99159.80
2023-07-25T12:22:22.111Z,99138.80
2023-07-25T12:27:25.485Z,99127.40
2023-07-25T12:32:25.392Z,99111.60
2023-07-25T12:37:25.154Z,99122.40
2023-07-25T12:42:25.754Z,99130.40
2023-07-25T12:47:29.995Z,99122.80
2023-07-25T12:52:33.188Z,99104.80
2023-07-25T12:57:37.558Z,99104.60
2023-07-25T13:02:38.956Z,99120.00
2023-07-25T13:07:38.755Z,99120.20
2023-07-25T13:12:39.035Z,99119.00
2023-07-25T13:17:39.542Z,99128.40
2023-07-25T13:22:40.040Z,99112.60
2023-07-25T13:27:39.610Z,99124.60
2023-07-25T13:32:40.698Z,99115.20
2023-07-25T13:37:41.589Z,99111.40
2023-07-25T13:42:42.460Z,99117.80
2023-07-25T13:47:44.887Z,99123.20
2023-07-25T13:52:44.144Z,99118.80
2023-07-25T13:57:52.387Z,99113.20
2023-07-25T14:02:52.696Z,99100.40
2023-07-25T14:07:52.823Z,99094.20
2023-07-25T14:12:52.560Z,99082.40
2023-07-25T14:17:51.935Z,99077.60
2023-07-25T14:22:52.000Z,99079.60
2023-07-25T14:27:52.509Z,99082.80
2023-07-25T14:32:52.478Z,99089.60
2023-07-25T14:37:55.886Z,99083.40
2023-07-25T14:42:56.927Z,99080.20
2023-07-25T14:47:57.437Z,99072.60
2023-07-25T14:52:57.021Z,99073.40
2023-07-25T14:57:57.366Z,99071.60
2023-07-25T15:02:57.415Z,99079.20
2023-07-25T15:07:57.787Z,99079.20
2023-07-25T15:12:57.764Z,99074.20
2023-07-25T15:17:57.866Z,99069.60
2023-07-25T15:22:57.764Z,99066.20
2023-07-25T15:27:58.503Z,99063.20
2023-07-25T15:32:58.359Z,99056.80
2023-07-25T15:38:01.128Z,99053.80
2023-07-25T15:43:02.137Z,99055.00
2023-07-25T15:48:02.509Z,99060.80
2023-07-25T15:53:03.799Z,99065.00
2023-07-25T15:58:10.336Z,99063.40
2023-07-25T16:03:10.369Z,99065.80
2023-07-25T16:08:10.357Z,99075.40
2023-07-25T16:13:09.837Z,99085.80
2023-07-25T16:18:10.169Z,99093.60
2023-07-25T16:23:10.461Z,99093.80
2023-07-25T16:28:10.620Z,99085.40
2023-07-25T16:33:11.199Z,99092.20
2023-07-25T16:38:12.781Z,99094.20
2023-07-25T16:43:12.919Z,99093.40
2023-07-25T16:48:13.477Z,99087.00
2023-07-25T16:53:13.868Z,99087.60
2023-07-25T16:58:13.585Z,99088.00
2023-07-25T17:03:13.689Z,99087.20
2023-07-25T17:08:14.216Z,99079.00
2023-07-25T17:13:15.386Z,99072.00
2023-07-25T17:18:15.614Z,99075.60
2023-07-25T17:23:15.790Z,99090.20
2023-07-25T17:28:16.305Z,99092.60
2023-07-25T17:33:16.451Z,99090.00
2023-07-25T17:38:17.088Z,99083.00
2023-07-25T17:43:17.781Z,99092.40
2023-07-25T17:48:20.901Z,99098.60
2023-07-25T17:53:20.428Z,99092.00
2023-07-25T17:58:19.992Z,99100.20
2023-07-25T18:03:20.483Z,99110.80
2023-07-25T18:08:21.295Z,99114.20
2023-07-25T18:13:24.467Z,99115.40
2023-07-25T18:18:24.294Z,99121.20
2023-07-25T18:23:23.369Z,99115.80
2023-07-25T18:28:23.679Z,99117.40
2023-07-25T18:33:23.686Z,99117.00
2023-07-25T18:38:23.395Z,99112.00
2023-07-25T18:43:27.149Z,99113.60
2023-07-25T18:48:29.278Z,99117.20
2023-07-25T18:53:31.606Z,99115.20
2023-07-25T18:58:31.669Z,99116.00
2023-07-25T19:03:32.326Z,99116.60
2023-07-25T19:08:32.197Z,99113.60
2023-07-25T19:13:32.722Z,99107.60
2023-07-25T19:18:32.246Z,99106.00
2023-07-25T19:23:32.639Z,99101.40
2023-07-25T19:28:33.490Z,99106.40
2023-07-25T19:33:34.672Z,99107.40
2023-07-25T19:38:34.637Z,99110.80
2023-07-25T19:43:35.923Z,99115.40
2023-07-25T19:48:35.426Z,99123.80
2023-07-25T19:53:36.783Z,99130.60
2023-07-25T19:58:36.946Z,99144.80
2023-07-25T20:03:38.315Z,99146.20
2023-07-25T20:08:38.679Z,99138.20
2023-07-25T20:13:39.848Z,99141.60
2023-07-25T20:18:39.922Z,99150.00
2023-07-25T20:23:40.131Z,99151.40
2023-07-25T20:28:39.661Z,99136.80
2023-07-25T20:33:44.826Z,99142.60
2023-07-25T20:38:48.065Z,99149.80
2023-07-25T20:43:48.511Z,99155.20
2023-07-25T20:48:48.830Z,99161.80
2023-07-25T20:53:48.588Z,99168.20
2023-07-25T20:58:48.855Z,99170.80
2023-07-25T21:03:48.855Z,99179.20
2023-07-25T21:08:49.324Z,99187.80
2023-07-25T21:13:49.263Z,99178.60
2023-07-25T21:18:49.775Z,99182.80
2023-07-25T21:23:49.795Z,99186.80
2023-07-25T21:28:49.471Z,99179.40
2023-07-25T21:33:49.415Z,99179.00
2023-07-25T21:38:49.189Z,99176.60
2023-07-25T21:43:48.738Z,99184.00
2023-07-25T21:48:49.092Z,99187.00
2023-07-25T21:53:49.102Z,99190.60
2023-07-25T21:58:49.401Z,99183.20
2023-07-25T22:03:49.605Z,99182.20
2023-07-25T22:08:49.715Z,99181.20
2023-07-25T22:13:49.118Z,99181.00
2023-07-25T22:18:49.982Z,99182.60
2023-07-25T22:23:50.011Z,99186.60
2023-07-25T22:28:50.294Z,99185.40
2023-07-25T22:33:49.771Z,99187.60
2023-07-25T22:38:49.551Z,99185.60
2023-07-25T22:43:51.008Z,99187.20
2023-07-25T22:48:51.401Z,99182.40
2023-07-25T22:53:50.468Z,99193.00
2023-07-25T22:58:49.937Z,99192.40
2023-07-25T23:03:49.527Z,99197.40
2023-07-25T23:08:49.911Z,99190.80
2023-07-25T23:13:49.312Z,99190.80
2023-07-25T23:18:49.442Z,99197.40
2023-07-25T23:23:49.086Z,99193.00
2023-07-25T23:28:49.455Z,99194.60
2023-07-25T23:33:50.546Z,99195.80
2023-07-25T23:38:50.435Z,99198.20
2023-07-25T23:43:50.355Z,99195.80
2023-07-25T23:48:49.963Z,99200.60
2023-07-25T23:53:49.280Z,99208.40
2023-07-25T23:58:48.874Z,99203.20
